sensor_id;sensor_type;location;lat;lon;timestamp;P1;durP1;ratioP1;P2;durP2;ratioP2
36247;SDS011;22287;50.824;5.644;2022-12-18T00:01:25;49.10;;;17.87;;
36247;SDS011;22287;50.824;5.644;2022-12-18T00:03:53;43.30;;;15.83;;
36247;SDS011;22287;50.824;5.644;2022-12-18T00:06:22;45.27;;;16.20;;
36247;SDS011;22287;50.824;5.644;2022-12-18T00:08:51;40.27;;;15.57;;
36247;SDS011;22287;50.824;5.644;2022-12-18T00:11:18;36.80;;;14.93;;
36247;SDS011;22287;50.824;5.644;2022-12-18T00:13:47;40.60;;;15.77;;
36247;SDS011;22287;50.824;5.644;2022-12-18T00:16:16;42.50;;;15.97;;
36247;SDS011;22287;50.824;5.644;2022-12-18T00:18:49;45.33;;;15.97;;
36247;SDS011;22287;50.824;5.644;2022-12-18T00:21:17;38.40;;;15.63;;
36247;SDS011;22287;50.824;5.644;2022-12-18T00:23:45;40.90;;;15.17;;
36247;SDS011;22287;50.824;5.644;2022-12-18T00:26:15;42.77;;;15.23;;
36247;SDS011;22287;50.824;5.644;2022-12-18T00:28:44;40.77;;;14.93;;
36247;SDS011;22287;50.824;5.644;2022-12-18T00:31:12;32.10;;;13.60;;
36247;SDS011;22287;50.824;5.644;2022-12-18T00:33:41;41.67;;;16.65;;
36247;SDS011;22287;50.824;5.644;2022-12-18T00:38:46;38.43;;;13.13;;
36247;SDS011;22287;50.824;5.644;2022-12-18T00:41:27;39.53;;;13.73;;
36247;SDS011;22287;50.824;5.644;2022-12-18T00:44:14;43.63;;;15.77;;
36247;SDS011;22287;50.824;5.644;2022-12-18T00:46:44;33.08;;;13.77;;
36247;SDS011;22287;50.824;5.644;2022-12-18T00:49:12;39.27;;;14.37;;
36247;SDS011;22287;50.824;5.644;2022-12-18T00:51:39;42.30;;;15.47;;
36247;SDS011;22287;50.824;5.644;2022-12-18T00:54:07;44.17;;;15.03;;
36247;SDS011;22287;50.824;5.644;2022-12-18T00:56:35;34.90;;;14.00;;
36247;SDS011;22287;50.824;5.644;2022-12-18T00:59:13;36.13;;;12.60;;
36247;SDS011;22287;50.824;5.644;2022-12-18T01:01:40;40.67;;;14.53;;
36247;SDS011;22287;50.824;5.644;2022-12-18T01:04:07;36.00;;;14.80;;
36247;SDS011;22287;50.824;5.644;2022-12-18T01:06:34;37.23;;;13.97;;
36247;SDS011;22287;50.824;5.644;2022-12-18T01:09:00;38.23;;;13.07;;
36247;SDS011;22287;50.824;5.644;2022-12-18T01:11:27;40.07;;;14.57;;
36247;SDS011;22287;50.824;5.644;2022-12-18T01:13:54;36.27;;;13.77;;
36247;SDS011;22287;50.824;5.644;2022-12-18T01:16:22;36.10;;;13.73;;
36247;SDS011;22287;50.824;5.644;2022-12-18T01:18:52;36.10;;;13.00;;
36247;SDS011;22287;50.824;5.644;2022-12-18T01:21:21;32.30;;;13.00;;
36247;SDS011;22287;50.824;5.644;2022-12-18T01:23:55;32.00;;;12.57;;
36247;SDS011;22287;50.824;5.644;2022-12-18T01:26:23;32.53;;;13.70;;
36247;SDS011;22287;50.824;5.644;2022-12-18T01:28:51;35.60;;;13.43;;
36247;SDS011;22287;50.824;5.644;2022-12-18T01:33:53;31.50;;;11.57;;
36247;SDS011;22287;50.824;5.644;2022-12-18T01:38:48;29.53;;;12.47;;
36247;SDS011;22287;50.824;5.644;2022-12-18T01:41:16;36.00;;;12.40;;
36247;SDS011;22287;50.824;5.644;2022-12-18T01:46:18;27.33;;;11.40;;
36247;SDS011;22287;50.824;5.644;2022-12-18T01:48:51;33.10;;;11.90;;
36247;SDS011;22287;50.824;5.644;2022-12-18T01:51:21;29.97;;;12.37;;
36247;SDS011;22287;50.824;5.644;2022-12-18T01:53:49;30.93;;;12.83;;
36247;SDS011;22287;50.824;5.644;2022-12-18T01:56:16;30.03;;;12.90;;
36247;SDS011;22287;50.824;5.644;2022-12-18T01:58:55;33.03;;;12.90;;
36247;SDS011;22287;50.824;5.644;2022-12-18T02:01:31;31.93;;;11.27;;
36247;SDS011;22287;50.824;5.644;2022-12-18T02:04:20;32.07;;;11.67;;
36247;SDS011;22287;50.824;5.644;2022-12-18T02:07:01;29.30;;;11.00;;
36247;SDS011;22287;50.824;5.644;2022-12-18T02:09:33;38.50;;;13.07;;
36247;SDS011;22287;50.824;5.644;2022-12-18T02:12:11;25.07;;;10.60;;
36247;SDS011;22287;50.824;5.644;2022-12-18T02:17:21;30.93;;;13.30;;
36247;SDS011;22287;50.824;5.644;2022-12-18T02:27:42;31.90;;;13.13;;
36247;SDS011;22287;50.824;5.644;2022-12-18T02:32:41;26.60;;;12.37;;
36247;SDS011;22287;50.824;5.644;2022-12-18T02:35:14;36.63;;;13.40;;
36247;SDS011;22287;50.824;5.644;2022-12-18T02:37:49;31.17;;;12.60;;
36247;SDS011;22287;50.824;5.644;2022-12-18T02:40:18;33.23;;;13.93;;
36247;SDS011;22287;50.824;5.644;2022-12-18T02:42:48;41.50;;;14.00;;
36247;SDS011;22287;50.824;5.644;2022-12-18T02:45:17;35.03;;;14.27;;
36247;SDS011;22287;50.824;5.644;2022-12-18T02:47:46;32.80;;;14.23;;
36247;SDS011;22287;50.824;5.644;2022-12-18T02:50:27;34.17;;;14.15;;
36247;SDS011;22287;50.824;5.644;2022-12-18T03:04:07;28.30;;;12.05;;
36247;SDS011;22287;50.824;5.644;2022-12-18T03:06:40;29.77;;;12.57;;
36247;SDS011;22287;50.824;5.644;2022-12-18T03:09:12;35.13;;;12.93;;
36247;SDS011;22287;50.824;5.644;2022-12-18T03:11:49;32.00;;;13.00;;
36247;SDS011;22287;50.824;5.644;2022-12-18T03:14:40;26.63;;;11.00;;
36247;SDS011;22287;50.824;5.644;2022-12-18T03:17:15;26.40;;;11.47;;
36247;SDS011;22287;50.824;5.644;2022-12-18T03:19:46;26.80;;;11.37;;
36247;SDS011;22287;50.824;5.644;2022-12-18T03:22:15;26.27;;;10.97;;
36247;SDS011;22287;50.824;5.644;2022-12-18T03:24:49;21.63;;;10.80;;
36247;SDS011;22287;50.824;5.644;2022-12-18T03:27:19;28.03;;;11.63;;
36247;SDS011;22287;50.824;5.644;2022-12-18T03:29:52;24.77;;;11.27;;
36247;SDS011;22287;50.824;5.644;2022-12-18T03:32:47;26.53;;;11.10;;
36247;SDS011;22287;50.824;5.644;2022-12-18T03:35:32;24.80;;;11.35;;
36247;SDS011;22287;50.824;5.644;2022-12-18T03:38:07;29.03;;;12.43;;
36247;SDS011;22287;50.824;5.644;2022-12-18T03:40:53;32.03;;;11.90;;
36247;SDS011;22287;50.824;5.644;2022-12-18T03:46:07;29.30;;;11.67;;
36247;SDS011;22287;50.824;5.644;2022-12-18T03:48:43;30.50;;;11.77;;
36247;SDS011;22287;50.824;5.644;2022-12-18T03:53:54;30.07;;;13.83;;
36247;SDS011;22287;50.824;5.644;2022-12-18T03:56:33;22.53;;;10.63;;
36247;SDS011;22287;50.824;5.644;2022-12-18T03:59:05;28.40;;;13.07;;
36247;SDS011;22287;50.824;5.644;2022-12-18T04:01:39;25.52;;;10.95;;
36247;SDS011;22287;50.824;5.644;2022-12-18T04:04:12;25.07;;;11.60;;
36247;SDS011;22287;50.824;5.644;2022-12-18T04:06:42;26.83;;;11.45;;
36247;SDS011;22287;50.824;5.644;2022-12-18T04:09:11;25.60;;;11.90;;
36247;SDS011;22287;50.824;5.644;2022-12-18T04:11:43;27.37;;;12.30;;
36247;SDS011;22287;50.824;5.644;2022-12-18T04:14:14;26.20;;;11.53;;
36247;SDS011;22287;50.824;5.644;2022-12-18T04:16:44;26.40;;;11.38;;
36247;SDS011;22287;50.824;5.644;2022-12-18T04:19:14;31.90;;;12.57;;
36247;SDS011;22287;50.824;5.644;2022-12-18T04:21:43;25.13;;;10.70;;
36247;SDS011;22287;50.824;5.644;2022-12-18T04:24:12;31.80;;;10.97;;
36247;SDS011;22287;50.824;5.644;2022-12-18T04:26:46;23.80;;;11.37;;
36247;SDS011;22287;50.824;5.644;2022-12-18T04:29:20;31.07;;;12.40;;
36247;SDS011;22287;50.824;5.644;2022-12-18T04:31:47;24.70;;;11.43;;
36247;SDS011;22287;50.824;5.644;2022-12-18T04:34:15;27.27;;;12.03;;
36247;SDS011;22287;50.824;5.644;2022-12-18T04:36:47;22.50;;;10.73;;
36247;SDS011;22287;50.824;5.644;2022-12-18T04:39:15;27.43;;;11.53;;
36247;SDS011;22287;50.824;5.644;2022-12-18T04:41:42;25.43;;;11.17;;
36247;SDS011;22287;50.824;5.644;2022-12-18T04:44:11;28.70;;;11.83;;
36247;SDS011;22287;50.824;5.644;2022-12-18T04:46:38;27.90;;;11.93;;
36247;SDS011;22287;50.824;5.644;2022-12-18T04:49:05;25.93;;;10.33;;
36247;SDS011;22287;50.824;5.644;2022-12-18T04:51:31;23.67;;;10.37;;
36247;SDS011;22287;50.824;5.644;2022-12-18T04:53:58;26.73;;;11.00;;
36247;SDS011;22287;50.824;5.644;2022-12-18T04:56:25;22.20;;;10.00;;
36247;SDS011;22287;50.824;5.644;2022-12-18T04:58:52;31.07;;;11.53;;
36247;SDS011;22287;50.824;5.644;2022-12-18T05:01:19;25.93;;;10.83;;
36247;SDS011;22287;50.824;5.644;2022-12-18T05:03:46;24.33;;;9.83;;
36247;SDS011;22287;50.824;5.644;2022-12-18T05:06:13;22.30;;;10.00;;
36247;SDS011;22287;50.824;5.644;2022-12-18T05:08:40;24.57;;;10.10;;
36247;SDS011;22287;50.824;5.644;2022-12-18T05:11:08;23.83;;;9.27;;
36247;SDS011;22287;50.824;5.644;2022-12-18T05:13:37;20.73;;;9.68;;
36247;SDS011;22287;50.824;5.644;2022-12-18T05:16:04;19.77;;;8.90;;
36247;SDS011;22287;50.824;5.644;2022-12-18T05:18:32;20.20;;;9.00;;
36247;SDS011;22287;50.824;5.644;2022-12-18T05:20:59;19.80;;;8.63;;
36247;SDS011;22287;50.824;5.644;2022-12-18T05:23:26;18.37;;;8.97;;
36247;SDS011;22287;50.824;5.644;2022-12-18T05:25:54;18.73;;;8.67;;
36247;SDS011;22287;50.824;5.644;2022-12-18T05:28:23;20.00;;;9.50;;
36247;SDS011;22287;50.824;5.644;2022-12-18T05:30:52;18.80;;;9.53;;
36247;SDS011;22287;50.824;5.644;2022-12-18T05:33:21;22.30;;;9.20;;
36247;SDS011;22287;50.824;5.644;2022-12-18T05:36:00;19.97;;;9.13;;
36247;SDS011;22287;50.824;5.644;2022-12-18T05:38:29;19.50;;;8.97;;
36247;SDS011;22287;50.824;5.644;2022-12-18T05:40:57;20.53;;;9.17;;
36247;SDS011;22287;50.824;5.644;2022-12-18T05:43:25;19.00;;;8.57;;
36247;SDS011;22287;50.824;5.644;2022-12-18T05:45:53;20.67;;;8.23;;
36247;SDS011;22287;50.824;5.644;2022-12-18T05:48:21;18.57;;;8.70;;
36247;SDS011;22287;50.824;5.644;2022-12-18T05:50:48;19.07;;;8.10;;
36247;SDS011;22287;50.824;5.644;2022-12-18T05:53:17;19.53;;;8.97;;
36247;SDS011;22287;50.824;5.644;2022-12-18T05:55:45;19.63;;;7.93;;
36247;SDS011;22287;50.824;5.644;2022-12-18T05:58:13;24.23;;;9.43;;
36247;SDS011;22287;50.824;5.644;2022-12-18T06:00:44;18.73;;;8.43;;
36247;SDS011;22287;50.824;5.644;2022-12-18T06:03:12;18.07;;;8.13;;
36247;SDS011;22287;50.824;5.644;2022-12-18T06:05:41;19.47;;;7.50;;
36247;SDS011;22287;50.824;5.644;2022-12-18T06:08:09;19.90;;;8.10;;
36247;SDS011;22287;50.824;5.644;2022-12-18T06:10:37;20.27;;;8.20;;
36247;SDS011;22287;50.824;5.644;2022-12-18T06:13:04;17.10;;;8.43;;
36247;SDS011;22287;50.824;5.644;2022-12-18T06:15:32;19.17;;;8.17;;
36247;SDS011;22287;50.824;5.644;2022-12-18T06:18:00;17.03;;;8.23;;
36247;SDS011;22287;50.824;5.644;2022-12-18T06:20:27;19.73;;;8.37;;
36247;SDS011;22287;50.824;5.644;2022-12-18T06:22:58;15.73;;;7.97;;
36247;SDS011;22287;50.824;5.644;2022-12-18T06:25:25;18.10;;;7.87;;
36247;SDS011;22287;50.824;5.644;2022-12-18T06:27:52;17.60;;;7.90;;
36247;SDS011;22287;50.824;5.644;2022-12-18T06:30:19;17.83;;;7.70;;
36247;SDS011;22287;50.824;5.644;2022-12-18T06:32:47;19.67;;;7.97;;
36247;SDS011;22287;50.824;5.644;2022-12-18T06:35:20;14.97;;;7.30;;
36247;SDS011;22287;50.824;5.644;2022-12-18T06:37:46;18.20;;;8.53;;
36247;SDS011;22287;50.824;5.644;2022-12-18T06:40:13;18.37;;;8.27;;
36247;SDS011;22287;50.824;5.644;2022-12-18T06:42:40;21.07;;;8.47;;
36247;SDS011;22287;50.824;5.644;2022-12-18T06:45:06;19.13;;;7.97;;
36247;SDS011;22287;50.824;5.644;2022-12-18T06:47:34;16.50;;;7.70;;
36247;SDS011;22287;50.824;5.644;2022-12-18T06:50:00;27.33;;;11.40;;
36247;SDS011;22287;50.824;5.644;2022-12-18T06:52:27;122.97;;;38.03;;
36247;SDS011;22287;50.824;5.644;2022-12-18T06:54:54;69.00;;;24.63;;
36247;SDS011;22287;50.824;5.644;2022-12-18T06:57:21;62.40;;;21.37;;
36247;SDS011;22287;50.824;5.644;2022-12-18T06:59:48;42.23;;;16.33;;
36247;SDS011;22287;50.824;5.644;2022-12-18T07:02:14;30.77;;;12.47;;
36247;SDS011;22287;50.824;5.644;2022-12-18T07:04:41;28.53;;;12.20;;
36247;SDS011;22287;50.824;5.644;2022-12-18T07:07:08;23.90;;;10.23;;
36247;SDS011;22287;50.824;5.644;2022-12-18T07:09:34;25.23;;;10.23;;
36247;SDS011;22287;50.824;5.644;2022-12-18T07:12:01;21.03;;;9.33;;
36247;SDS011;22287;50.824;5.644;2022-12-18T07:14:28;23.67;;;9.93;;
36247;SDS011;22287;50.824;5.644;2022-12-18T07:16:55;21.73;;;8.97;;
36247;SDS011;22287;50.824;5.644;2022-12-18T07:19:21;20.30;;;10.17;;
36247;SDS011;22287;50.824;5.644;2022-12-18T07:21:49;20.47;;;9.13;;
36247;SDS011;22287;50.824;5.644;2022-12-18T07:24:16;20.97;;;8.53;;
36247;SDS011;22287;50.824;5.644;2022-12-18T07:26:45;16.80;;;8.17;;
36247;SDS011;22287;50.824;5.644;2022-12-18T07:29:12;22.47;;;9.37;;
36247;SDS011;22287;50.824;5.644;2022-12-18T07:31:39;17.60;;;7.83;;
36247;SDS011;22287;50.824;5.644;2022-12-18T07:34:09;12.47;;;6.27;;
36247;SDS011;22287;50.824;5.644;2022-12-18T07:36:37;16.50;;;8.37;;
36247;SDS011;22287;50.824;5.644;2022-12-18T07:39:03;14.37;;;7.70;;
36247;SDS011;22287;50.824;5.644;2022-12-18T07:41:30;14.57;;;6.57;;
36247;SDS011;22287;50.824;5.644;2022-12-18T07:44:08;16.67;;;6.47;;
36247;SDS011;22287;50.824;5.644;2022-12-18T07:46:38;16.03;;;7.40;;
36247;SDS011;22287;50.824;5.644;2022-12-18T07:49:05;16.83;;;7.20;;
36247;SDS011;22287;50.824;5.644;2022-12-18T07:51:32;16.20;;;7.83;;
36247;SDS011;22287;50.824;5.644;2022-12-18T07:53:58;16.83;;;8.03;;
36247;SDS011;22287;50.824;5.644;2022-12-18T07:56:25;17.23;;;8.27;;
36247;SDS011;22287;50.824;5.644;2022-12-18T07:58:54;14.70;;;7.43;;
36247;SDS011;22287;50.824;5.644;2022-12-18T08:01:21;14.83;;;7.00;;
36247;SDS011;22287;50.824;5.644;2022-12-18T08:03:48;17.50;;;7.70;;
36247;SDS011;22287;50.824;5.644;2022-12-18T08:06:17;17.83;;;7.07;;
36247;SDS011;22287;50.824;5.644;2022-12-18T08:08:43;13.97;;;6.83;;
36247;SDS011;22287;50.824;5.644;2022-12-18T08:11:10;17.53;;;7.60;;
36247;SDS011;22287;50.824;5.644;2022-12-18T08:13:37;15.70;;;7.37;;
36247;SDS011;22287;50.824;5.644;2022-12-18T08:16:05;17.77;;;8.53;;
36247;SDS011;22287;50.824;5.644;2022-12-18T08:18:34;17.13;;;8.57;;
36247;SDS011;22287;50.824;5.644;2022-12-18T08:21:35;22.20;;;8.87;;
36247;SDS011;22287;50.824;5.644;2022-12-18T08:23:57;16.23;;;7.77;;
36247;SDS011;22287;50.824;5.644;2022-12-18T08:26:26;14.43;;;6.90;;
36247;SDS011;22287;50.824;5.644;2022-12-18T08:28:55;15.30;;;7.13;;
36247;SDS011;22287;50.824;5.644;2022-12-18T08:31:23;16.13;;;7.27;;
36247;SDS011;22287;50.824;5.644;2022-12-18T08:33:51;14.77;;;6.90;;
36247;SDS011;22287;50.824;5.644;2022-12-18T08:36:19;14.60;;;7.90;;
36247;SDS011;22287;50.824;5.644;2022-12-18T08:38:46;15.57;;;6.93;;
36247;SDS011;22287;50.824;5.644;2022-12-18T08:41:14;16.17;;;7.47;;
36247;SDS011;22287;50.824;5.644;2022-12-18T08:43:42;20.43;;;8.27;;
36247;SDS011;22287;50.824;5.644;2022-12-18T08:46:31;15.37;;;6.93;;
36247;SDS011;22287;50.824;5.644;2022-12-18T08:49:03;15.40;;;7.30;;
36247;SDS011;22287;50.824;5.644;2022-12-18T08:51:32;17.67;;;7.90;;
36247;SDS011;22287;50.824;5.644;2022-12-18T08:53:59;15.77;;;8.17;;
36247;SDS011;22287;50.824;5.644;2022-12-18T08:56:26;18.77;;;7.80;;
36247;SDS011;22287;50.824;5.644;2022-12-18T08:58:53;17.63;;;7.23;;
36247;SDS011;22287;50.824;5.644;2022-12-18T09:01:21;18.03;;;9.33;;
36247;SDS011;22287;50.824;5.644;2022-12-18T09:03:49;15.77;;;8.03;;
36247;SDS011;22287;50.824;5.644;2022-12-18T09:06:17;15.80;;;7.43;;
36247;SDS011;22287;50.824;5.644;2022-12-18T09:08:48;14.07;;;7.28;;
36247;SDS011;22287;50.824;5.644;2022-12-18T09:11:21;18.37;;;7.57;;
36247;SDS011;22287;50.824;5.644;2022-12-18T09:13:51;11.90;;;7.07;;
36247;SDS011;22287;50.824;5.644;2022-12-18T09:16:18;15.70;;;7.17;;
36247;SDS011;22287;50.824;5.644;2022-12-18T09:18:48;13.03;;;7.07;;
36247;SDS011;22287;50.824;5.644;2022-12-18T09:21:16;14.90;;;6.90;;
36247;SDS011;22287;50.824;5.644;2022-12-18T09:23:51;15.50;;;7.37;;
36247;SDS011;22287;50.824;5.644;2022-12-18T09:26:19;18.00;;;8.07;;
36247;SDS011;22287;50.824;5.644;2022-12-18T09:28:46;15.43;;;7.77;;
36247;SDS011;22287;50.824;5.644;2022-12-18T09:31:13;17.60;;;8.07;;
36247;SDS011;22287;50.824;5.644;2022-12-18T09:33:40;15.30;;;7.17;;
36247;SDS011;22287;50.824;5.644;2022-12-18T09:36:09;16.07;;;7.47;;
36247;SDS011;22287;50.824;5.644;2022-12-18T09:38:37;13.40;;;6.90;;
36247;SDS011;22287;50.824;5.644;2022-12-18T09:44:05;15.70;;;7.90;;
36247;SDS011;22287;50.824;5.644;2022-12-18T09:46:46;10.57;;;6.27;;
36247;SDS011;22287;50.824;5.644;2022-12-18T09:49:19;14.47;;;6.67;;
36247;SDS011;22287;50.824;5.644;2022-12-18T09:54:24;14.93;;;7.70;;
36247;SDS011;22287;50.824;5.644;2022-12-18T09:56:56;12.83;;;7.03;;
36247;SDS011;22287;50.824;5.644;2022-12-18T09:59:24;12.50;;;6.67;;
36247;SDS011;22287;50.824;5.644;2022-12-18T10:01:56;10.93;;;6.00;;
36247;SDS011;22287;50.824;5.644;2022-12-18T10:04:23;14.43;;;7.10;;
36247;SDS011;22287;50.824;5.644;2022-12-18T10:07:13;13.37;;;7.37;;
36247;SDS011;22287;50.824;5.644;2022-12-18T10:12:48;11.97;;;6.87;;
36247;SDS011;22287;50.824;5.644;2022-12-18T10:18:33;15.57;;;7.07;;
36247;SDS011;22287;50.824;5.644;2022-12-18T10:21:39;15.07;;;7.43;;
36247;SDS011;22287;50.824;5.644;2022-12-18T10:27:18;18.20;;;7.80;;
36247;SDS011;22287;50.824;5.644;2022-12-18T10:29:47;26.80;;;12.10;;
36247;SDS011;22287;50.824;5.644;2022-12-18T10:32:29;18.60;;;9.20;;
36247;SDS011;22287;50.824;5.644;2022-12-18T10:35:15;17.27;;;8.80;;
36247;SDS011;22287;50.824;5.644;2022-12-18T10:40:54;14.53;;;8.00;;
36247;SDS011;22287;50.824;5.644;2022-12-18T10:43:39;16.93;;;8.57;;
36247;SDS011;22287;50.824;5.644;2022-12-18T10:48:52;13.83;;;7.03;;
36247;SDS011;22287;50.824;5.644;2022-12-18T10:51:25;14.67;;;8.53;;
36247;SDS011;22287;50.824;5.644;2022-12-18T10:53:57;16.20;;;8.07;;
36247;SDS011;22287;50.824;5.644;2022-12-18T10:56:27;13.57;;;8.07;;
36247;SDS011;22287;50.824;5.644;2022-12-18T11:01:49;18.20;;;9.80;;
36247;SDS011;22287;50.824;5.644;2022-12-18T11:04:20;15.97;;;8.73;;
36247;SDS011;22287;50.824;5.644;2022-12-18T11:09:28;17.30;;;8.83;;
36247;SDS011;22287;50.824;5.644;2022-12-18T11:16:55;16.50;;;8.13;;
36247;SDS011;22287;50.824;5.644;2022-12-18T11:19:43;16.33;;;9.17;;
36247;SDS011;22287;50.824;5.644;2022-12-18T11:22:43;20.23;;;9.97;;
36247;SDS011;22287;50.824;5.644;2022-12-18T11:25:05;20.23;;;10.30;;
36247;SDS011;22287;50.824;5.644;2022-12-18T11:28:02;17.60;;;9.77;;
36247;SDS011;22287;50.824;5.644;2022-12-18T11:30:33;21.53;;;10.60;;
36247;SDS011;22287;50.824;5.644;2022-12-18T11:33:06;18.67;;;9.90;;
36247;SDS011;22287;50.824;5.644;2022-12-18T11:35:42;17.43;;;9.23;;
36247;SDS011;22287;50.824;5.644;2022-12-18T11:38:12;19.25;;;10.25;;
36247;SDS011;22287;50.824;5.644;2022-12-18T11:40:43;20.03;;;9.43;;
36247;SDS011;22287;50.824;5.644;2022-12-18T11:48:45;14.80;;;8.50;;
36247;SDS011;22287;50.824;5.644;2022-12-18T11:51:22;18.57;;;9.50;;
36247;SDS011;22287;50.824;5.644;2022-12-18T11:53:56;17.90;;;10.23;;
36247;SDS011;22287;50.824;5.644;2022-12-18T12:01:49;19.73;;;10.33;;
36247;SDS011;22287;50.824;5.644;2022-12-18T12:07:19;29.77;;;15.97;;
36247;SDS011;22287;50.824;5.644;2022-12-18T12:15:43;22.33;;;12.10;;
36247;SDS011;22287;50.824;5.644;2022-12-18T12:32:33;20.93;;;10.73;;
36247;SDS011;22287;50.824;5.644;2022-12-18T12:40:52;24.03;;;13.90;;
36247;SDS011;22287;50.824;5.644;2022-12-18T12:43:38;20.43;;;10.63;;
36247;SDS011;22287;50.824;5.644;2022-12-18T12:46:16;27.80;;;14.67;;
36247;SDS011;22287;50.824;5.644;2022-12-18T12:53:49;25.43;;;14.33;;
36247;SDS011;22287;50.824;5.644;2022-12-18T12:56:17;24.97;;;14.43;;
36247;SDS011;22287;50.824;5.644;2022-12-18T13:01:40;24.07;;;12.17;;
36247;SDS011;22287;50.824;5.644;2022-12-18T13:04:23;20.00;;;11.37;;
36247;SDS011;22287;50.824;5.644;2022-12-18T13:10:10;20.50;;;11.97;;
36247;SDS011;22287;50.824;5.644;2022-12-18T13:31:00;25.77;;;13.63;;
36247;SDS011;22287;50.824;5.644;2022-12-18T13:38:43;24.80;;;13.23;;
36247;SDS011;22287;50.824;5.644;2022-12-18T13:43:44;25.17;;;14.03;;
36247;SDS011;22287;50.824;5.644;2022-12-18T13:51:46;22.80;;;13.50;;
36247;SDS011;22287;50.824;5.644;2022-12-18T13:57:01;22.03;;;12.93;;
36247;SDS011;22287;50.824;5.644;2022-12-18T13:59:36;22.17;;;12.80;;
36247;SDS011;22287;50.824;5.644;2022-12-18T14:02:12;21.03;;;12.57;;
36247;SDS011;22287;50.824;5.644;2022-12-18T14:04:47;22.80;;;12.63;;
36247;SDS011;22287;50.824;5.644;2022-12-18T14:07:17;26.73;;;14.20;;
36247;SDS011;22287;50.824;5.644;2022-12-18T14:09:49;29.40;;;15.03;;
36247;SDS011;22287;50.824;5.644;2022-12-18T14:12:27;22.57;;;13.10;;
36247;SDS011;22287;50.824;5.644;2022-12-18T14:20:48;28.97;;;14.50;;
36247;SDS011;22287;50.824;5.644;2022-12-18T14:28:59;24.10;;;13.10;;
36247;SDS011;22287;50.824;5.644;2022-12-18T14:31:29;28.77;;;15.67;;
36247;SDS011;22287;50.824;5.644;2022-12-18T14:33:57;36.27;;;16.90;;
36247;SDS011;22287;50.824;5.644;2022-12-18T14:39:13;32.17;;;14.90;;
36247;SDS011;22287;50.824;5.644;2022-12-18T14:41:43;39.17;;;19.20;;
36247;SDS011;22287;50.824;5.644;2022-12-18T14:44:11;33.57;;;17.90;;
36247;SDS011;22287;50.824;5.644;2022-12-18T14:46:39;30.23;;;16.90;;
36247;SDS011;22287;50.824;5.644;2022-12-18T14:49:25;27.83;;;14.80;;
36247;SDS011;22287;50.824;5.644;2022-12-18T14:52:00;27.23;;;14.87;;
36247;SDS011;22287;50.824;5.644;2022-12-18T14:57:06;21.40;;;11.07;;
36247;SDS011;22287;50.824;5.644;2022-12-18T14:59:49;16.10;;;9.00;;
36247;SDS011;22287;50.824;5.644;2022-12-18T15:02:23;21.90;;;9.20;;
36247;SDS011;22287;50.824;5.644;2022-12-18T15:05:02;15.60;;;8.97;;
36247;SDS011;22287;50.824;5.644;2022-12-18T15:07:44;17.27;;;9.67;;
36247;SDS011;22287;50.824;5.644;2022-12-18T15:10:14;17.17;;;9.07;;
36247;SDS011;22287;50.824;5.644;2022-12-18T15:12:44;18.08;;;9.10;;
36247;SDS011;22287;50.824;5.644;2022-12-18T15:20:32;16.43;;;8.40;;
36247;SDS011;22287;50.824;5.644;2022-12-18T15:23:46;17.37;;;8.70;;
36247;SDS011;22287;50.824;5.644;2022-12-18T15:26:00;14.87;;;7.60;;
36247;SDS011;22287;50.824;5.644;2022-12-18T15:28:51;17.70;;;9.23;;
36247;SDS011;22287;50.824;5.644;2022-12-18T15:31:23;14.23;;;8.10;;
36247;SDS011;22287;50.824;5.644;2022-12-18T15:36:22;20.83;;;9.83;;
36247;SDS011;22287;50.824;5.644;2022-12-18T15:38:54;19.17;;;9.00;;
36247;SDS011;22287;50.824;5.644;2022-12-18T15:41:24;18.35;;;9.13;;
36247;SDS011;22287;50.824;5.644;2022-12-18T15:43:51;16.00;;;7.77;;
36247;SDS011;22287;50.824;5.644;2022-12-18T15:46:20;15.33;;;8.50;;
36247;SDS011;22287;50.824;5.644;2022-12-18T15:48:52;14.27;;;7.50;;
36247;SDS011;22287;50.824;5.644;2022-12-18T15:51:28;14.70;;;8.07;;
36247;SDS011;22287;50.824;5.644;2022-12-18T15:53:59;14.70;;;8.10;;
36247;SDS011;22287;50.824;5.644;2022-12-18T15:56:31;17.60;;;8.23;;
36247;SDS011;22287;50.824;5.644;2022-12-18T15:59:17;15.87;;;8.90;;
36247;SDS011;22287;50.824;5.644;2022-12-18T16:01:47;15.57;;;7.43;;
36247;SDS011;22287;50.824;5.644;2022-12-18T16:04:16;16.40;;;7.90;;
36247;SDS011;22287;50.824;5.644;2022-12-18T16:06:47;20.27;;;9.60;;
36247;SDS011;22287;50.824;5.644;2022-12-18T16:09:35;15.17;;;8.30;;
36247;SDS011;22287;50.824;5.644;2022-12-18T16:12:02;15.73;;;8.30;;
36247;SDS011;22287;50.824;5.644;2022-12-18T16:14:29;18.57;;;8.83;;
36247;SDS011;22287;50.824;5.644;2022-12-18T16:17:01;18.17;;;9.97;;
36247;SDS011;22287;50.824;5.644;2022-12-18T16:19:30;20.97;;;10.63;;
36247;SDS011;22287;50.824;5.644;2022-12-18T16:21:57;18.53;;;10.13;;
36247;SDS011;22287;50.824;5.644;2022-12-18T16:24:26;18.10;;;10.50;;
36247;SDS011;22287;50.824;5.644;2022-12-18T16:26:55;18.77;;;10.07;;
36247;SDS011;22287;50.824;5.644;2022-12-18T16:29:25;19.88;;;10.02;;
36247;SDS011;22287;50.824;5.644;2022-12-18T16:31:57;17.87;;;10.50;;
36247;SDS011;22287;50.824;5.644;2022-12-18T16:36:55;19.43;;;9.73;;
36247;SDS011;22287;50.824;5.644;2022-12-18T16:39:30;19.43;;;11.03;;
36247;SDS011;22287;50.824;5.644;2022-12-18T16:42:16;18.10;;;9.73;;
36247;SDS011;22287;50.824;5.644;2022-12-18T16:44:46;17.48;;;8.88;;
36247;SDS011;22287;50.824;5.644;2022-12-18T16:47:14;16.17;;;8.47;;
36247;SDS011;22287;50.824;5.644;2022-12-18T16:49:41;19.50;;;9.37;;
36247;SDS011;22287;50.824;5.644;2022-12-18T16:52:11;18.00;;;9.43;;
36247;SDS011;22287;50.824;5.644;2022-12-18T16:54:39;20.33;;;9.47;;
36247;SDS011;22287;50.824;5.644;2022-12-18T16:57:06;18.03;;;10.07;;
36247;SDS011;22287;50.824;5.644;2022-12-18T16:59:33;19.27;;;9.23;;
36247;SDS011;22287;50.824;5.644;2022-12-18T17:01:59;16.23;;;8.43;;
36247;SDS011;22287;50.824;5.644;2022-12-18T17:04:27;14.07;;;7.90;;
36247;SDS011;22287;50.824;5.644;2022-12-18T17:07:17;21.55;;;8.60;;
36247;SDS011;22287;50.824;5.644;2022-12-18T17:09:44;15.57;;;8.03;;
36247;SDS011;22287;50.824;5.644;2022-12-18T17:12:11;16.00;;;8.00;;
36247;SDS011;22287;50.824;5.644;2022-12-18T17:14:38;17.13;;;7.20;;
36247;SDS011;22287;50.824;5.644;2022-12-18T17:17:05;17.13;;;7.37;;
36247;SDS011;22287;50.824;5.644;2022-12-18T17:19:49;14.97;;;7.33;;
36247;SDS011;22287;50.824;5.644;2022-12-18T17:25:09;14.47;;;7.67;;
36247;SDS011;22287;50.824;5.644;2022-12-18T17:27:36;13.73;;;7.80;;
36247;SDS011;22287;50.824;5.644;2022-12-18T17:30:03;16.43;;;7.83;;
36247;SDS011;22287;50.824;5.644;2022-12-18T17:32:30;14.50;;;7.50;;
36247;SDS011;22287;50.824;5.644;2022-12-18T17:34:57;15.20;;;7.93;;
36247;SDS011;22287;50.824;5.644;2022-12-18T17:37:27;18.95;;;8.00;;
36247;SDS011;22287;50.824;5.644;2022-12-18T17:39:55;19.40;;;9.50;;
36247;SDS011;22287;50.824;5.644;2022-12-18T17:42:22;16.70;;;7.60;;
36247;SDS011;22287;50.824;5.644;2022-12-18T17:44:48;16.10;;;7.67;;
36247;SDS011;22287;50.824;5.644;2022-12-18T17:47:15;18.63;;;8.60;;
36247;SDS011;22287;50.824;5.644;2022-12-18T17:49:42;17.50;;;7.83;;
36247;SDS011;22287;50.824;5.644;2022-12-18T17:52:09;14.60;;;7.60;;
36247;SDS011;22287;50.824;5.644;2022-12-18T17:54:57;16.87;;;7.60;;
36247;SDS011;22287;50.824;5.644;2022-12-18T17:57:24;17.97;;;8.40;;